sensor_id;sensor_type;location;lat;lon;timestamp;temperature;humidity
11965;DHT22;6042;41.326;19.826;2022-07-21T00:00:18;24.90;69.10
11965;DHT22;6042;41.326;19.826;2022-07-21T00:02:48;24.90;68.70
11965;DHT22;6042;41.326;19.826;2022-07-21T00:05:17;25.00;68.50
11965;DHT22;6042;41.326;19.826;2022-07-21T00:07:47;24.90;67.80
11965;DHT22;6042;41.326;19.826;2022-07-21T00:10:16;24.80;67.30
11965;DHT22;6042;41.326;19.826;2022-07-21T00:12:45;24.80;67.40
11965;DHT22;6042;41.326;19.826;2022-07-21T00:15:15;24.90;67.50
11965;DHT22;6042;41.326;19.826;2022-07-21T00:17:44;24.90;67.60
11965;DHT22;6042;41.326;19.826;2022-07-21T00:20:13;24.90;67.50
11965;DHT22;6042;41.326;19.826;2022-07-21T00:22:42;24.90;67.00
11965;DHT22;6042;41.326;19.826;2022-07-21T00:25:13;24.90;66.40
11965;DHT22;6042;41.326;19.826;2022-07-21T00:27:42;25.00;65.90
11965;DHT22;6042;41.326;19.826;2022-07-21T00:30:12;25.00;66.50
11965;DHT22;6042;41.326;19.826;2022-07-21T00:32:41;25.00;67.30
11965;DHT22;6042;41.326;19.826;2022-07-21T00:35:11;25.00;67.50
11965;DHT22;6042;41.326;19.826;2022-07-21T00:37:40;25.00;66.50
11965;DHT22;6042;41.326;19.826;2022-07-21T00:40:12;24.80;66.90
11965;DHT22;6042;41.326;19.826;2022-07-21T00:42:43;24.90;66.80
11965;DHT22;6042;41.326;19.826;2022-07-21T00:45:12;24.90;66.20
11965;DHT22;6042;41.326;19.826;2022-07-21T00:47:42;24.90;65.90
11965;DHT22;6042;41.326;19.826;2022-07-21T00:50:13;24.80;65.80
11965;DHT22;6042;41.326;19.826;2022-07-21T00:52:42;24.80;66.00
11965;DHT22;6042;41.326;19.826;2022-07-21T00:55:14;24.80;65.70
11965;DHT22;6042;41.326;19.826;2022-07-21T00:57:43;24.80;66.00
11965;DHT22;6042;41.326;19.826;2022-07-21T01:00:15;24.80;65.50
11965;DHT22;6042;41.326;19.826;2022-07-21T01:02:44;24.80;65.90
11965;DHT22;6042;41.326;19.826;2022-07-21T01:05:15;24.90;65.40
11965;DHT22;6042;41.326;19.826;2022-07-21T01:07:46;24.90;65.80
11965;DHT22;6042;41.326;19.826;2022-07-21T01:10:17;25.00;66.70
11965;DHT22;6042;41.326;19.826;2022-07-21T01:12:46;25.00;68.30
11965;DHT22;6042;41.326;19.826;2022-07-21T01:15:16;25.00;66.50
11965;DHT22;6042;41.326;19.826;2022-07-21T01:17:45;25.00;67.20
11965;DHT22;6042;41.326;19.826;2022-07-21T01:20:16;24.90;66.70
11965;DHT22;6042;41.326;19.826;2022-07-21T01:22:50;24.90;66.20
11965;DHT22;6042;41.326;19.826;2022-07-21T01:25:20;25.00;65.30
11965;DHT22;6042;41.326;19.826;2022-07-21T01:27:49;25.00;64.00
11965;DHT22;6042;41.326;19.826;2022-07-21T01:30:17;25.00;64.90
11965;DHT22;6042;41.326;19.826;2022-07-21T01:32:46;25.00;65.60
11965;DHT22;6042;41.326;19.826;2022-07-21T01:35:15;24.90;65.70
11965;DHT22;6042;41.326;19.826;2022-07-21T01:37:46;24.90;64.80
11965;DHT22;6042;41.326;19.826;2022-07-21T01:40:17;24.80;65.10
11965;DHT22;6042;41.326;19.826;2022-07-21T01:43:04;24.90;65.20
11965;DHT22;6042;41.326;19.826;2022-07-21T01:45:38;24.90;64.90
11965;DHT22;6042;41.326;19.826;2022-07-21T01:48:07;24.90;64.40
11965;DHT22;6042;41.326;19.826;2022-07-21T01:50:37;24.80;64.10
11965;DHT22;6042;41.326;19.826;2022-07-21T01:53:05;24.70;64.40
11965;DHT22;6042;41.326;19.826;2022-07-21T01:55:36;24.70;64.30
11965;DHT22;6042;41.326;19.826;2022-07-21T01:58:04;24.70;64.70
11965;DHT22;6042;41.326;19.826;2022-07-21T02:00:33;24.50;64.80
11965;DHT22;6042;41.326;19.826;2022-07-21T02:03:01;24.40;64.70
11965;DHT22;6042;41.326;19.826;2022-07-21T02:05:30;24.50;65.00
11965;DHT22;6042;41.326;19.826;2022-07-21T02:07:59;24.50;64.70
11965;DHT22;6042;41.326;19.826;2022-07-21T02:10:27;24.50;65.00
11965;DHT22;6042;41.326;19.826;2022-07-21T02:12:57;24.50;65.10
11965;DHT22;6042;41.326;19.826;2022-07-21T02:15:26;24.50;64.80
11965;DHT22;6042;41.326;19.826;2022-07-21T02:17:54;24.50;64.70
11965;DHT22;6042;41.326;19.826;2022-07-21T02:20:23;24.60;64.20
11965;DHT22;6042;41.326;19.826;2022-07-21T02:22:52;24.70;64.10
11965;DHT22;6042;41.326;19.826;2022-07-21T02:25:21;24.70;63.90
11965;DHT22;6042;41.326;19.826;2022-07-21T02:27:49;24.80;63.10
11965;DHT22;6042;41.326;19.826;2022-07-21T02:30:19;24.70;63.10
11965;DHT22;6042;41.326;19.826;2022-07-21T02:32:48;24.70;63.20
11965;DHT22;6042;41.326;19.826;2022-07-21T02:35:16;24.70;63.90
11965;DHT22;6042;41.326;19.826;2022-07-21T02:37:45;24.70;63.90
11965;DHT22;6042;41.326;19.826;2022-07-21T02:40:13;24.60;64.60
11965;DHT22;6042;41.326;19.826;2022-07-21T02:42:42;24.50;66.50
11965;DHT22;6042;41.326;19.826;2022-07-21T02:45:13;24.60;70.80
11965;DHT22;6042;41.326;19.826;2022-07-21T02:47:52;24.50;72.70
11965;DHT22;6042;41.326;19.826;2022-07-21T02:50:22;24.40;70.60
11965;DHT22;6042;41.326;19.826;2022-07-21T02:52:54;24.40;68.70
11965;DHT22;6042;41.326;19.826;2022-07-21T02:55:29;24.30;66.70
11965;DHT22;6042;41.326;19.826;2022-07-21T02:58:07;24.30;66.50
11965;DHT22;6042;41.326;19.826;2022-07-21T03:00:38;24.30;66.40
11965;DHT22;6042;41.326;19.826;2022-07-21T03:03:14;24.20;65.90
11965;DHT22;6042;41.326;19.826;2022-07-21T03:05:42;24.20;66.10
11965;DHT22;6042;41.326;19.826;2022-07-21T03:08:11;24.20;66.00
11965;DHT22;6042;41.326;19.826;2022-07-21T03:10:40;24.20;66.20
11965;DHT22;6042;41.326;19.826;2022-07-21T03:13:09;24.10;65.80
11965;DHT22;6042;41.326;19.826;2022-07-21T03:15:38;24.20;65.50
11965;DHT22;6042;41.326;19.826;2022-07-21T03:18:07;24.20;65.60
11965;DHT22;6042;41.326;19.826;2022-07-21T03:20:39;24.20;65.60
11965;DHT22;6042;41.326;19.826;2022-07-21T03:23:09;24.20;65.20
11965;DHT22;6042;41.326;19.826;2022-07-21T03:25:37;24.20;65.50
11965;DHT22;6042;41.326;19.826;2022-07-21T03:28:06;24.20;65.60
11965;DHT22;6042;41.326;19.826;2022-07-21T03:30:35;24.20;65.60
11965;DHT22;6042;41.326;19.826;2022-07-21T03:33:04;24.20;65.70
11965;DHT22;6042;41.326;19.826;2022-07-21T03:35:33;24.20;65.50
11965;DHT22;6042;41.326;19.826;2022-07-21T03:38:05;24.10;65.70
11965;DHT22;6042;41.326;19.826;2022-07-21T03:40:35;24.20;65.50
11965;DHT22;6042;41.326;19.826;2022-07-21T03:43:06;24.10;65.40
11965;DHT22;6042;41.326;19.826;2022-07-21T03:45:35;24.20;66.10
11965;DHT22;6042;41.326;19.826;2022-07-21T03:48:06;24.20;66.10
11965;DHT22;6042;41.326;19.826;2022-07-21T03:50:35;24.10;66.50
11965;DHT22;6042;41.326;19.826;2022-07-21T03:53:06;24.00;66.70
11965;DHT22;6042;41.326;19.826;2022-07-21T03:55:35;23.90;67.30
11965;DHT22;6042;41.326;19.826;2022-07-21T03:58:06;24.00;67.00
11965;DHT22;6042;41.326;19.826;2022-07-21T04:00:37;24.00;65.60
11965;DHT22;6042;41.326;19.826;2022-07-21T04:03:07;24.00;65.50
11965;DHT22;6042;41.326;19.826;2022-07-21T04:05:36;24.20;65.40
11965;DHT22;6042;41.326;19.826;2022-07-21T04:08:07;24.20;65.00
11965;DHT22;6042;41.326;19.826;2022-07-21T04:10:37;24.30;64.90
11965;DHT22;6042;41.326;19.826;2022-07-21T04:13:07;24.30;64.90
11965;DHT22;6042;41.326;19.826;2022-07-21T04:15:37;24.30;64.70
11965;DHT22;6042;41.326;19.826;2022-07-21T04:18:06;24.30;65.20
11965;DHT22;6042;41.326;19.826;2022-07-21T04:20:36;24.40;65.20
11965;DHT22;6042;41.326;19.826;2022-07-21T04:23:05;24.40;65.20
11965;DHT22;6042;41.326;19.826;2022-07-21T04:25:36;24.40;65.10
11965;DHT22;6042;41.326;19.826;2022-07-21T04:28:06;24.40;65.40
11965;DHT22;6042;41.326;19.826;2022-07-21T04:30:35;24.70;66.00
11965;DHT22;6042;41.326;19.826;2022-07-21T04:33:03;25.10;64.20
11965;DHT22;6042;41.326;19.826;2022-07-21T04:35:33;25.10;63.70
11965;DHT22;6042;41.326;19.826;2022-07-21T04:38:02;25.30;63.50
11965;DHT22;6042;41.326;19.826;2022-07-21T04:40:32;25.20;63.80
11965;DHT22;6042;41.326;19.826;2022-07-21T04:43:01;25.20;64.50
11965;DHT22;6042;41.326;19.826;2022-07-21T04:45:29;25.20;63.70
11965;DHT22;6042;41.326;19.826;2022-07-21T04:47:59;25.10;64.20
11965;DHT22;6042;41.326;19.826;2022-07-21T04:50:27;25.00;65.10
11965;DHT22;6042;41.326;19.826;2022-07-21T04:52:56;24.90;64.60
11965;DHT22;6042;41.326;19.826;2022-07-21T04:55:26;25.00;65.00
11965;DHT22;6042;41.326;19.826;2022-07-21T04:57:57;25.00;65.00
11965;DHT22;6042;41.326;19.826;2022-07-21T05:00:26;25.00;65.20
11965;DHT22;6042;41.326;19.826;2022-07-21T05:02:56;25.00;65.10
11965;DHT22;6042;41.326;19.826;2022-07-21T05:05:25;25.00;65.30
11965;DHT22;6042;41.326;19.826;2022-07-21T05:07:53;25.00;66.00
11965;DHT22;6042;41.326;19.826;2022-07-21T05:10:22;25.10;65.50
11965;DHT22;6042;41.326;19.826;2022-07-21T05:12:51;25.20;65.20
11965;DHT22;6042;41.326;19.826;2022-07-21T05:15:21;25.30;65.30
11965;DHT22;6042;41.326;19.826;2022-07-21T05:17:49;25.40;65.00
11965;DHT22;6042;41.326;19.826;2022-07-21T05:20:18;25.50;65.70
11965;DHT22;6042;41.326;19.826;2022-07-21T05:22:46;25.60;65.40
11965;DHT22;6042;41.326;19.826;2022-07-21T05:25:15;25.70;65.10
11965;DHT22;6042;41.326;19.826;2022-07-21T05:27:43;25.70;65.40
11965;DHT22;6042;41.326;19.826;2022-07-21T05:30:12;25.80;66.10
11965;DHT22;6042;41.326;19.826;2022-07-21T05:32:42;25.80;65.30
11965;DHT22;6042;41.326;19.826;2022-07-21T05:35:15;26.00;65.00
11965;DHT22;6042;41.326;19.826;2022-07-21T05:37:44;26.00;65.50
11965;DHT22;6042;41.326;19.826;2022-07-21T05:40:14;26.20;65.30
11965;DHT22;6042;41.326;19.826;2022-07-21T05:42:42;26.30;64.20
11965;DHT22;6042;41.326;19.826;2022-07-21T05:45:11;26.50;64.80
11965;DHT22;6042;41.326;19.826;2022-07-21T05:47:42;26.90;63.80
11965;DHT22;6042;41.326;19.826;2022-07-21T05:50:11;27.20;62.80
11965;DHT22;6042;41.326;19.826;2022-07-21T05:52:40;27.20;63.00
11965;DHT22;6042;41.326;19.826;2022-07-21T05:55:09;27.30;63.00
11965;DHT22;6042;41.326;19.826;2022-07-21T05:57:38;27.30;62.40
11965;DHT22;6042;41.326;19.826;2022-07-21T06:00:14;27.30;62.10
11965;DHT22;6042;41.326;19.826;2022-07-21T06:02:44;27.40;62.70
11965;DHT22;6042;41.326;19.826;2022-07-21T06:05:14;27.40;62.60
11965;DHT22;6042;41.326;19.826;2022-07-21T06:07:42;27.50;62.50
11965;DHT22;6042;41.326;19.826;2022-07-21T06:10:11;27.50;61.40
11965;DHT22;6042;41.326;19.826;2022-07-21T06:12:43;27.60;60.80
11965;DHT22;6042;41.326;19.826;2022-07-21T06:15:12;27.70;60.50
11965;DHT22;6042;41.326;19.826;2022-07-21T06:17:41;27.80;61.80
11965;DHT22;6042;41.326;19.826;2022-07-21T06:20:12;27.90;62.10
11965;DHT22;6042;41.326;19.826;2022-07-21T06:22:42;27.90;62.50
11965;DHT22;6042;41.326;19.826;2022-07-21T06:25:10;27.90;61.60
11965;DHT22;6042;41.326;19.826;2022-07-21T06:27:39;28.00;62.60
11965;DHT22;6042;41.326;19.826;2022-07-21T06:30:09;28.00;61.90
11965;DHT22;6042;41.326;19.826;2022-07-21T06:32:37;28.20;61.20
11965;DHT22;6042;41.326;19.826;2022-07-21T06:35:08;28.30;59.70
11965;DHT22;6042;41.326;19.826;2022-07-21T06:37:38;28.30;59.40
11965;DHT22;6042;41.326;19.826;2022-07-21T06:40:08;28.40;59.10
11965;DHT22;6042;41.326;19.826;2022-07-21T06:42:36;28.50;58.70
11965;DHT22;6042;41.326;19.826;2022-07-21T06:45:25;28.60;58.30
11965;DHT22;6042;41.326;19.826;2022-07-21T06:48:00;28.60;58.70
11965;DHT22;6042;41.326;19.826;2022-07-21T06:50:29;28.50;58.70
11965;DHT22;6042;41.326;19.826;2022-07-21T06:52:59;28.60;58.50
11965;DHT22;6042;41.326;19.826;2022-07-21T06:55:27;28.60;58.50
11965;DHT22;6042;41.326;19.826;2022-07-21T06:57:56;28.70;58.30
11965;DHT22;6042;41.326;19.826;2022-07-21T07:00:24;28.80;58.20
11965;DHT22;6042;41.326;19.826;2022-07-21T07:02:53;28.90;57.50
11965;DHT22;6042;41.326;19.826;2022-07-21T07:05:22;28.90;57.40
11965;DHT22;6042;41.326;19.826;2022-07-21T07:07:50;29.00;57.40
11965;DHT22;6042;41.326;19.826;2022-07-21T07:10:20;29.10;57.10
11965;DHT22;6042;41.326;19.826;2022-07-21T07:12:49;29.30;56.40
11965;DHT22;6042;41.326;19.826;2022-07-21T07:15:37;29.40;56.30
11965;DHT22;6042;41.326;19.826;2022-07-21T07:18:06;29.40;56.00
11965;DHT22;6042;41.326;19.826;2022-07-21T07:20:35;29.50;55.90
11965;DHT22;6042;41.326;19.826;2022-07-21T07:23:04;29.50;55.60
11965;DHT22;6042;41.326;19.826;2022-07-21T07:25:34;29.50;53.70
11965;DHT22;6042;41.326;19.826;2022-07-21T07:28:03;29.70;54.60
11965;DHT22;6042;41.326;19.826;2022-07-21T07:30:32;29.60;55.20
11965;DHT22;6042;41.326;19.826;2022-07-21T07:33:01;29.70;55.40
11965;DHT22;6042;41.326;19.826;2022-07-21T07:35:29;29.80;55.90
11965;DHT22;6042;41.326;19.826;2022-07-21T07:37:58;29.90;56.10
11965;DHT22;6042;41.326;19.826;2022-07-21T07:40:27;29.80;56.10
11965;DHT22;6042;41.326;19.826;2022-07-21T07:42:57;30.00;55.40
11965;DHT22;6042;41.326;19.826;2022-07-21T07:45:33;30.00;55.60
11965;DHT22;6042;41.326;19.826;2022-07-21T07:48:03;30.00;54.90
11965;DHT22;6042;41.326;19.826;2022-07-21T07:50:31;30.00;54.90
11965;DHT22;6042;41.326;19.826;2022-07-21T07:53:00;30.10;54.60
11965;DHT22;6042;41.326;19.826;2022-07-21T07:55:29;30.10;53.80
11965;DHT22;6042;41.326;19.826;2022-07-21T07:57:59;30.20;52.80
11965;DHT22;6042;41.326;19.826;2022-07-21T08:00:28;30.10;53.10
11965;DHT22;6042;41.326;19.826;2022-07-21T08:03:16;30.20;53.40
11965;DHT22;6042;41.326;19.826;2022-07-21T08:05:45;30.20;53.60
11965;DHT22;6042;41.326;19.826;2022-07-21T08:08:15;30.30;53.80
11965;DHT22;6042;41.326;19.826;2022-07-21T08:10:44;30.40;53.00
11965;DHT22;6042;41.326;19.826;2022-07-21T08:13:15;30.40;53.00
11965;DHT22;6042;41.326;19.826;2022-07-21T08:15:45;30.40;53.40
11965;DHT22;6042;41.326;19.826;2022-07-21T08:18:15;30.50;53.80
11965;DHT22;6042;41.326;19.826;2022-07-21T08:20:45;30.60;53.10
11965;DHT22;6042;41.326;19.826;2022-07-21T08:23:14;30.70;51.90
11965;DHT22;6042;41.326;19.826;2022-07-21T08:25:43;30.60;52.10
11965;DHT22;6042;41.326;19.826;2022-07-21T08:28:13;30.70;52.40
11965;DHT22;6042;41.326;19.826;2022-07-21T08:30:42;30.60;53.00
11965;DHT22;6042;41.326;19.826;2022-07-21T08:33:11;30.70;53.30
11965;DHT22;6042;41.326;19.826;2022-07-21T08:35:39;30.70;53.60
11965;DHT22;6042;41.326;19.826;2022-07-21T08:38:09;30.80;53.40
11965;DHT22;6042;41.326;19.826;2022-07-21T08:40:40;30.90;53.50
11965;DHT22;6042;41.326;19.826;2022-07-21T08:43:10;31.10;52.50
11965;DHT22;6042;41.326;19.826;2022-07-21T08:45:42;30.90;52.40
11965;DHT22;6042;41.326;19.826;2022-07-21T08:48:11;30.90;52.60
11965;DHT22;6042;41.326;19.826;2022-07-21T08:50:41;31.00;52.00
11965;DHT22;6042;41.326;19.826;2022-07-21T08:53:10;30.90;51.70
11965;DHT22;6042;41.326;19.826;2022-07-21T08:55:38;30.90;52.10
11965;DHT22;6042;41.326;19.826;2022-07-21T08:58:08;31.00;52.20
11965;DHT22;6042;41.326;19.826;2022-07-21T09:00:38;31.10;51.90
11965;DHT22;6042;41.326;19.826;2022-07-21T09:03:14;31.20;51.80
11965;DHT22;6042;41.326;19.826;2022-07-21T09:05:59;31.50;51.40
11965;DHT22;6042;41.326;19.826;2022-07-21T09:08:32;31.60;51.60
11965;DHT22;6042;41.326;19.826;2022-07-21T09:11:17;31.70;51.10
11965;DHT22;6042;41.326;19.826;2022-07-21T09:13:48;31.80;50.40
11965;DHT22;6042;41.326;19.826;2022-07-21T09:16:38;31.80;51.20
11965;DHT22;6042;41.326;19.826;2022-07-21T09:19:16;32.00;50.60
11965;DHT22;6042;41.326;19.826;2022-07-21T09:21:45;32.00;49.30
11965;DHT22;6042;41.326;19.826;2022-07-21T09:24:19;32.00;48.40
11965;DHT22;6042;41.326;19.826;2022-07-21T09:26:59;32.00;49.00
11965;DHT22;6042;41.326;19.826;2022-07-21T09:29:38;32.00;49.70
11965;DHT22;6042;41.326;19.826;2022-07-21T09:32:18;31.90;49.70
11965;DHT22;6042;41.326;19.826;2022-07-21T09:34:51;31.90;50.50
11965;DHT22;6042;41.326;19.826;2022-07-21T09:37:21;32.00;49.60
11965;DHT22;6042;41.326;19.826;2022-07-21T09:39:51;32.00;48.00
11965;DHT22;6042;41.326;19.826;2022-07-21T09:42:24;32.10;48.90
11965;DHT22;6042;41.326;19.826;2022-07-21T09:44:54;32.10;49.40
11965;DHT22;6042;41.326;19.826;2022-07-21T09:47:25;32.20;49.00
11965;DHT22;6042;41.326;19.826;2022-07-21T09:49:57;32.30;48.40
11965;DHT22;6042;41.326;19.826;2022-07-21T09:52:46;32.30;47.50
11965;DHT22;6042;41.326;19.826;2022-07-21T09:55:16;32.30;49.10
11965;DHT22;6042;41.326;19.826;2022-07-21T09:57:45;32.40;49.00
11965;DHT22;6042;41.326;19.826;2022-07-21T10:00:16;32.40;49.60
11965;DHT22;6042;41.326;19.826;2022-07-21T10:02:47;32.50;49.50
11965;DHT22;6042;41.326;19.826;2022-07-21T10:05:19;32.50;49.00
11965;DHT22;6042;41.326;19.826;2022-07-21T10:08:00;32.60;48.80
11965;DHT22;6042;41.326;19.826;2022-07-21T10:10:34;32.60;49.30
11965;DHT22;6042;41.326;19.826;2022-07-21T10:13:23;32.60;50.00
11965;DHT22;6042;41.326;19.826;2022-07-21T10:15:53;32.60;51.50
11965;DHT22;6042;41.326;19.826;2022-07-21T10:18:30;32.70;52.40
11965;DHT22;6042;41.326;19.826;2022-07-21T10:21:11;32.60;53.00
11965;DHT22;6042;41.326;19.826;2022-07-21T10:23:43;32.50;53.00
11965;DHT22;6042;41.326;19.826;2022-07-21T10:26:12;32.60;53.70
11965;DHT22;6042;41.326;19.826;2022-07-21T10:28:40;32.60;54.20
11965;DHT22;6042;41.326;19.826;2022-07-21T10:31:18;32.60;53.40
11965;DHT22;6042;41.326;19.826;2022-07-21T10:33:58;32.60;52.50
11965;DHT22;6042;41.326;19.826;2022-07-21T10:36:45;32.70;52.60
11965;DHT22;6042;41.326;19.826;2022-07-21T10:39:35;32.80;52.60
11965;DHT22;6042;41.326;19.826;2022-07-21T10:42:14;32.70;53.40
11965;DHT22;6042;41.326;19.826;2022-07-21T10:44:47;32.80;53.20
11965;DHT22;6042;41.326;19.826;2022-07-21T10:47:17;32.90;52.80
11965;DHT22;6042;41.326;19.826;2022-07-21T10:49:50;33.00;51.90
11965;DHT22;6042;41.326;19.826;2022-07-21T10:52:58;33.20;51.60
11965;DHT22;6042;41.326;19.826;2022-07-21T10:55:29;33.20;52.30
11965;DHT22;6042;41.326;19.826;2022-07-21T10:58:25;33.30;51.70
11965;DHT22;6042;41.326;19.826;2022-07-21T11:00:54;33.50;51.70
11965;DHT22;6042;41.326;19.826;2022-07-21T11:03:26;33.60;52.00
11965;DHT22;6042;41.326;19.826;2022-07-21T11:06:15;33.80;52.50
11965;DHT22;6042;41.326;19.826;2022-07-21T11:09:07;33.90;52.00
11965;DHT22;6042;41.326;19.826;2022-07-21T11:11:37;33.80;52.10
11965;DHT22;6042;41.326;19.826;2022-07-21T11:14:11;33.90;51.70
11965;DHT22;6042;41.326;19.826;2022-07-21T11:17:10;33.90;51.80
11965;DHT22;6042;41.326;19.826;2022-07-21T11:19:42;33.90;51.70
11965;DHT22;6042;41.326;19.826;2022-07-21T11:22:14;33.90;51.30
11965;DHT22;6042;41.326;19.826;2022-07-21T11:24:47;34.00;50.50
11965;DHT22;6042;41.326;19.826;2022-07-21T11:27:17;33.90;49.60
11965;DHT22;6042;41.326;19.826;2022-07-21T11:29:53;33.70;49.70
11965;DHT22;6042;41.326;19.826;2022-07-21T11:32:22;33.60;50.60
11965;DHT22;6042;41.326;19.826;2022-07-21T11:34:52;33.60;50.60
11965;DHT22;6042;41.326;19.826;2022-07-21T11:37:27;33.80;49.50
11965;DHT22;6042;41.326;19.826;2022-07-21T11:40:05;34.10;48.70
11965;DHT22;6042;41.326;19.826;2022-07-21T11:42:35;34.10;49.50
11965;DHT22;6042;41.326;19.826;2022-07-21T11:45:06;33.80;50.40
11965;DHT22;6042;41.326;19.826;2022-07-21T11:47:35;33.80;50.80
11965;DHT22;6042;41.326;19.826;2022-07-21T11:50:06;33.80;50.80
11965;DHT22;6042;41.326;19.826;2022-07-21T11:52:38;33.90;51.30
11965;DHT22;6042;41.326;19.826;2022-07-21T11:55:09;34.20;51.70
11965;DHT22;6042;41.326;19.826;2022-07-21T11:57:41;34.30;51.10
11965;DHT22;6042;41.326;19.826;2022-07-21T12:00:12;34.50;51.20
11965;DHT22;6042;41.326;19.826;2022-07-21T12:02:43;34.40;52.40
11965;DHT22;6042;41.326;19.826;2022-07-21T12:05:12;34.40;52.50
11965;DHT22;6042;41.326;19.826;2022-07-21T12:07:44;34.50;53.10
11965;DHT22;6042;41.326;19.826;2022-07-21T12:10:21;34.60;52.90
11965;DHT22;6042;41.326;19.826;2022-07-21T12:12:51;34.30;53.30
11965;DHT22;6042;41.326;19.826;2022-07-21T12:15:21;34.50;52.60
11965;DHT22;6042;41.326;19.826;2022-07-21T12:17:51;34.20;53.40
11965;DHT22;6042;41.326;19.826;2022-07-21T12:20:25;33.90;53.30
11965;DHT22;6042;41.326;19.826;2022-07-21T12:22:56;33.80;54.40
11965;DHT22;6042;41.326;19.826;2022-07-21T12:25:34;34.00;54.50
11965;DHT22;6042;41.326;19.826;2022-07-21T12:28:04;34.10;53.90
11965;DHT22;6042;41.326;19.826;2022-07-21T12:30:35;34.00;54.30
11965;DHT22;6042;41.326;19.826;2022-07-21T12:33:06;34.20;53.70
11965;DHT22;6042;41.326;19.826;2022-07-21T12:35:37;34.50;53.20
11965;DHT22;6042;41.326;19.826;2022-07-21T12:38:08;34.70;52.40
11965;DHT22;6042;41.326;19.826;2022-07-21T12:40:42;34.20;53.10
11965;DHT22;6042;41.326;19.826;2022-07-21T12:43:32;34.20;53.40
11965;DHT22;6042;41.326;19.826;2022-07-21T12:46:02;34.50;52.50
11965;DHT22;6042;41.326;19.826;2022-07-21T12:48:33;34.60;52.00
11965;DHT22;6042;41.326;19.826;2022-07-21T12:51:08;34.50;52.00
11965;DHT22;6042;41.326;19.826;2022-07-21T12:53:44;34.60;52.30
11965;DHT22;6042;41.326;19.826;2022-07-21T12:56:16;34.90;51.50
11965;DHT22;6042;41.326;19.826;2022-07-21T12:58:47;35.20;50.70
11965;DHT22;6042;41.326;19.826;2022-07-21T13:01:17;35.50;51.00
11965;DHT22;6042;41.326;19.826;2022-07-21T13:03:46;35.70;50.80
11965;DHT22;6042;41.326;19.826;2022-07-21T13:06:15;35.50;50.50
11965;DHT22;6042;41.326;19.826;2022-07-21T13:08:45;35.00;50.90
11965;DHT22;6042;41.326;19.826;2022-07-21T13:11:20;34.70;51.10
11965;DHT22;6042;41.326;19.826;2022-07-21T13:13:49;34.60;51.00
11965;DHT22;6042;41.326;19.826;2022-07-21T13:16:19;34.40;51.80
11965;DHT22;6042;41.326;19.826;2022-07-21T13:18:50;34.60;52.50
11965;DHT22;6042;41.326;19.826;2022-07-21T13:21:20;34.70;51.70
11965;DHT22;6042;41.326;19.826;2022-07-21T13:23:48;35.00;52.10
11965;DHT22;6042;41.326;19.826;2022-07-21T13:26:18;35.00;52.90
11965;DHT22;6042;41.326;19.826;2022-07-21T13:28:47;35.30;53.10
11965;DHT22;6042;41.326;19.826;2022-07-21T13:31:15;35.50;52.50
11965;DHT22;6042;41.326;19.826;2022-07-21T13:33:45;35.60;52.40
11965;DHT22;6042;41.326;19.826;2022-07-21T13:36:14;35.70;52.30
11965;DHT22;6042;41.326;19.826;2022-07-21T13:38:42;36.00;51.90
11965;DHT22;6042;41.326;19.826;2022-07-21T13:41:11;36.20;51.30
11965;DHT22;6042;41.326;19.826;2022-07-21T13:44:03;36.10;51.70
11965;DHT22;6042;41.326;19.826;2022-07-21T13:46:32;35.80;51.40
11965;DHT22;6042;41.326;19.826;2022-07-21T13:49:01;35.80;51.80
11965;DHT22;6042;41.326;19.826;2022-07-21T13:51:29;36.00;52.10
11965;DHT22;6042;41.326;19.826;2022-07-21T13:53:58;36.40;51.60
11965;DHT22;6042;41.326;19.826;2022-07-21T13:56:26;36.70;51.90
11965;DHT22;6042;41.326;19.826;2022-07-21T13:58:55;36.90;50.70
11965;DHT22;6042;41.326;19.826;2022-07-21T14:01:25;37.10;50.30
11965;DHT22;6042;41.326;19.826;2022-07-21T14:03:56;37.20;50.10
11965;DHT22;6042;41.326;19.826;2022-07-21T14:06:25;36.60;50.70
11965;DHT22;6042;41.326;19.826;2022-07-21T14:08:54;36.50;51.30
11965;DHT22;6042;41.326;19.826;2022-07-21T14:11:23;36.60;51.30
11965;DHT22;6042;41.326;19.826;2022-07-21T14:13:54;35.90;52.20
11965;DHT22;6042;41.326;19.826;2022-07-21T14:16:25;35.70;52.20
11965;DHT22;6042;41.326;19.826;2022-07-21T14:18:54;35.80;52.30
11965;DHT22;6042;41.326;19.826;2022-07-21T14:21:23;36.40;51.80
11965;DHT22;6042;41.326;19.826;2022-07-21T14:23:52;36.60;51.30
11965;DHT22;6042;41.326;19.826;2022-07-21T14:26:40;36.90;50.70
11965;DHT22;6042;41.326;19.826;2022-07-21T14:29:09;35.70;52.10
11965;DHT22;6042;41.326;19.826;2022-07-21T14:31:39;35.30;52.70
11965;DHT22;6042;41.326;19.826;2022-07-21T14:34:07;35.50;52.40
11965;DHT22;6042;41.326;19.826;2022-07-21T14:36:36;35.90;51.40
11965;DHT22;6042;41.326;19.826;2022-07-21T14:39:04;36.30;50.80
11965;DHT22;6042;41.326;19.826;2022-07-21T14:41:34;36.90;50.30
11965;DHT22;6042;41.326;19.826;2022-07-21T14:44:02;37.30;49.30
11965;DHT22;6042;41.326;19.826;2022-07-21T14:46:31;37.40;49.00
11965;DHT22;6042;41.326;19.826;2022-07-21T14:49:01;36.60;49.20
11965;DHT22;6042;41.326;19.826;2022-07-21T14:51:30;36.50;49.60
11965;DHT22;6042;41.326;19.826;2022-07-21T14:53:58;36.80;49.40
11965;DHT22;6042;41.326;19.826;2022-07-21T14:56:27;37.20;48.50
11965;DHT22;6042;41.326;19.826;2022-07-21T14:59:15;37.30;48.00
11965;DHT22;6042;41.326;19.826;2022-07-21T15:01:44;37.40;47.90
11965;DHT22;6042;41.326;19.826;2022-07-21T15:04:14;36.70;48.50
11965;DHT22;6042;41.326;19.826;2022-07-21T15:06:43;36.50;49.20
11965;DHT22;6042;41.326;19.826;2022-07-21T15:09:12;36.90;48.40
11965;DHT22;6042;41.326;19.826;2022-07-21T15:11:41;37.10;48.40
11965;DHT22;6042;41.326;19.826;2022-07-21T15:14:10;37.60;47.50
11965;DHT22;6042;41.326;19.826;2022-07-21T15:16:39;37.70;47.40
11965;DHT22;6042;41.326;19.826;2022-07-21T15:19:07;37.70;47.40
11965;DHT22;6042;41.326;19.826;2022-07-21T15:21:37;37.50;47.70
11965;DHT22;6042;41.326;19.826;2022-07-21T15:24:06;37.80;47.00
11965;DHT22;6042;41.326;19.826;2022-07-21T15:26:34;38.00;46.50
11965;DHT22;6042;41.326;19.826;2022-07-21T15:29:03;37.90;46.40
11965;DHT22;6042;41.326;19.826;2022-07-21T15:31:32;37.60;46.70
11965;DHT22;6042;41.326;19.826;2022-07-21T15:34:00;37.70;46.90
11965;DHT22;6042;41.326;19.826;2022-07-21T15:36:29;38.20;46.20
11965;DHT22;6042;41.326;19.826;2022-07-21T15:38:59;37.90;46.40
11965;DHT22;6042;41.326;19.826;2022-07-21T15:41:28;37.10;47.20
11965;DHT22;6042;41.326;19.826;2022-07-21T15:44:16;37.30;46.90
11965;DHT22;6042;41.326;19.826;2022-07-21T15:46:45;37.60;46.30
11965;DHT22;6042;41.326;19.826;2022-07-21T15:49:13;37.20;46.90
11965;DHT22;6042;41.326;19.826;2022-07-21T15:51:45;37.40;46.90
11965;DHT22;6042;41.326;19.826;2022-07-21T15:54:16;37.80;47.10